createdAt,value
2023-01-20T00:02:19.551Z,13.80
2023-01-20T00:07:20.851Z,14.43
2023-01-20T00:12:22.307Z,15.25
2023-01-20T00:17:23.638Z,13.48
2023-01-20T00:22:24.998Z,15.05
2023-01-20T00:27:26.337Z,15.38
2023-01-20T00:32:27.717Z,16.60
2023-01-20T00:37:29.182Z,17.83
2023-01-20T00:42:30.584Z,16.60
2023-01-20T00:47:32.055Z,17.83
2023-01-20T00:52:33.500Z,15.88
2023-01-20T00:57:34.860Z,15.82
2023-01-20T01:02:40.025Z,16.45
2023-01-20T01:07:42.256Z,16.70
2023-01-20T01:12:43.945Z,17.40
2023-01-20T01:17:45.545Z,17.20
2023-01-20T01:22:46.990Z,17.15
2023-01-20T01:27:48.403Z,17.45
2023-01-20T01:32:49.902Z,16.00
2023-01-20T01:37:51.314Z,16.55
2023-01-20T01:42:52.593Z,15.75
2023-01-20T01:48:03.167Z,16.38
2023-01-20T01:53:05.762Z,17.10
2023-01-20T01:58:11.281Z,17.90
2023-01-20T02:03:13.290Z,18.02
2023-01-20T02:08:14.814Z,17.77
2023-01-20T02:13:16.594Z,17.27
2023-01-20T02:18:38.970Z,17.02
2023-01-20T02:24:12.303Z,19.10
2023-01-20T02:30:05.719Z,20.50
2023-01-20T02:35:40.299Z,19.95
2023-01-20T02:41:03.466Z,19.27
2023-01-20T02:46:16.438Z,20.60
2023-01-20T02:51:24.566Z,18.80
2023-01-20T02:56:29.634Z,18.95
2023-01-20T03:01:36.981Z,19.25
2023-01-20T03:06:46.512Z,19.15
2023-01-20T03:12:17.695Z,20.63
2023-01-20T03:17:20.424Z,20.20
2023-01-20T03:22:22.683Z,22.10
2023-01-20T03:27:24.592Z,20.20
2023-01-20T03:32:27.083Z,21.73
2023-01-20T03:37:28.535Z,21.35
2023-01-20T03:42:52.609Z,22.40
2023-01-20T03:48:12.739Z,22.52
2023-01-20T03:53:45.870Z,21.13
2023-01-20T03:58:51.881Z,22.08
2023-01-20T04:03:54.559Z,20.30
2023-01-20T04:09:04.321Z,18.90
2023-01-20T04:14:09.457Z,19.92
2023-01-20T04:19:10.818Z,21.17
2023-01-20T04:24:15.157Z,22.23
2023-01-20T04:29:16.633Z,20.10
2023-01-20T04:34:18.080Z,21.25
2023-01-20T04:39:19.413Z,23.20
2023-01-20T04:44:20.799Z,21.40
2023-01-20T04:49:22.258Z,22.10
2023-01-20T04:54:23.610Z,22.20
2023-01-20T04:59:24.951Z,23.58
2023-01-20T05:04:26.347Z,22.75
2023-01-20T05:09:27.736Z,22.88
2023-01-20T05:14:29.527Z,22.15
2023-01-20T05:19:30.851Z,21.35
2023-01-20T05:24:32.199Z,22.55
2023-01-20T05:29:33.563Z,24.17
2023-01-20T05:34:34.893Z,22.55
2023-01-20T05:39:36.179Z,24.23
2023-01-20T05:44:37.577Z,23.30
2023-01-20T05:49:38.951Z,22.55
2023-01-20T05:54:40.403Z,23.42
2023-01-20T05:59:42.391Z,22.75
2023-01-20T06:04:43.788Z,24.10
2023-01-20T06:09:45.203Z,25.35
2023-01-20T06:14:46.984Z,24.98
2023-01-20T06:19:49.228Z,23.45
2023-01-20T06:24:50.746Z,26.50
2023-01-20T06:29:52.169Z,23.13
2023-01-20T06:34:53.664Z,24.20
2023-01-20T06:39:54.947Z,25.60
2023-01-20T06:44:56.298Z,25.10
2023-01-20T06:49:57.692Z,23.52
2023-01-20T06:54:59.094Z,21.77
2023-01-20T07:00:00.516Z,22.80
2023-01-20T07:05:02.477Z,21.80
2023-01-20T07:10:04.228Z,22.40
2023-01-20T07:15:06.070Z,25.42
2023-01-20T07:20:07.956Z,23.75
2023-01-20T07:25:09.858Z,24.20
2023-01-20T07:30:11.364Z,24.23
2023-01-20T07:35:13.216Z,23.50
2023-01-20T07:40:14.802Z,24.08
2023-01-20T07:45:17.034Z,23.67
2023-01-20T07:50:18.699Z,23.58
2023-01-20T07:55:20.178Z,27.67
2023-01-20T08:00:22.209Z,27.00
2023-01-20T08:05:23.617Z,27.20
2023-01-20T08:10:25.119Z,28.17
2023-01-20T08:15:26.547Z,28.35
2023-01-20T08:20:28.014Z,26.90
2023-01-20T08:25:29.398Z,26.70
2023-01-20T08:30:30.900Z,25.58
2023-01-20T08:35:35.392Z,27.05
2023-01-20T08:40:36.814Z,25.60
2023-01-20T08:45:38.433Z,30.70
2023-01-20T08:50:39.940Z,28.27
2023-01-20T08:55:41.300Z,28.92
2023-01-20T09:00:42.613Z,25.98
2023-01-20T09:05:44.170Z,28.55
2023-01-20T09:10:46.302Z,29.25
2023-01-20T09:15:52.319Z,28.08
2023-01-20T09:20:53.597Z,29.38
2023-01-20T09:25:55.322Z,30.77
2023-01-20T09:31:05.327Z,29.70
2023-01-20T09:36:09.513Z,31.33
2023-01-20T09:41:44.015Z,30.43
2023-01-20T09:47:20.199Z,31.17
2023-01-20T09:52:46.929Z,30.98
2023-01-20T09:57:59.215Z,30.25
2023-01-20T10:03:09.844Z,27.55
2023-01-20T10:08:21.589Z,24.33
2023-01-20T10:13:47.266Z,23.23
2023-01-20T10:19:04.888Z,22.35
2023-01-20T10:24:18.227Z,23.85
2023-01-20T10:29:41.207Z,23.27
2023-01-20T10:34:46.953Z,23.42
2023-01-20T10:39:54.562Z,22.40
2023-01-20T10:44:56.157Z,20.70
2023-01-20T10:50:22.207Z,20.38
2023-01-20T10:55:34.953Z,20.90
2023-01-20T11:00:37.161Z,18.08
2023-01-20T11:05:38.715Z,16.60
2023-01-20T11:10:41.729Z,15.27
2023-01-20T11:15:48.265Z,14.25
2023-01-20T11:20:53.927Z,15.70
2023-01-20T11:25:57.987Z,15.05
2023-01-20T11:30:59.507Z,14.00
2023-01-20T11:36:04.579Z,14.32
2023-01-20T11:41:17.252Z,13.97
2023-01-20T11:46:25.626Z,16.20
2023-01-20T11:51:27.168Z,14.02
2023-01-20T11:56:41.730Z,13.80
2023-01-20T12:02:00.658Z,14.52
2023-01-20T12:07:26.608Z,13.07
2023-01-20T12:12:38.461Z,13.48
2023-01-20T12:17:49.128Z,12.48
2023-01-20T12:23:11.854Z,12.98
2023-01-20T12:28:17.342Z,12.77
2023-01-20T12:33:38.990Z,12.70
2023-01-20T12:39:00.918Z,12.30
2023-01-20T12:44:26.592Z,11.05
2023-01-20T12:49:27.877Z,10.77
2023-01-20T12:54:50.878Z,9.75
2023-01-20T13:00:12.488Z,10.38
2023-01-20T13:05:42.377Z,10.15
2023-01-20T13:10:51.211Z,10.23
2023-01-20T13:16:02.779Z,10.18
2023-01-20T13:21:04.239Z,10.45
2023-01-20T13:26:06.283Z,10.05
2023-01-20T13:31:37.337Z,9.25
2023-01-20T13:36:38.894Z,14.57
2023-01-20T13:41:50.564Z,12.20
2023-01-20T13:46:52.067Z,10.48
2023-01-20T13:51:53.494Z,10.27
2023-01-20T13:57:27.928Z,9.77
2023-01-20T14:02:35.405Z,10.45
2023-01-20T14:07:36.739Z,19.55
2023-01-20T14:12:41.462Z,11.32
2023-01-20T14:17:42.840Z,11.75
2023-01-20T14:22:44.340Z,12.90
2023-01-20T14:27:45.679Z,13.77
2023-01-20T14:32:47.123Z,15.10
2023-01-20T14:37:51.565Z,18.45
2023-01-20T14:43:14.473Z,20.13
2023-01-20T14:48:32.422Z,17.25
2023-01-20T14:53:35.386Z,17.60
2023-01-20T14:58:44.571Z,17.70
2023-01-20T15:03:46.065Z,16.60
2023-01-20T15:09:04.920Z,16.38
2023-01-20T15:14:08.732Z,16.50
2023-01-20T15:19:20.290Z,17.48
2023-01-20T15:24:32.209Z,17.08
2023-01-20T15:29:35.701Z,18.67
2023-01-20T15:34:37.276Z,19.13
2023-01-20T15:39:38.676Z,20.95
2023-01-20T15:44:40.067Z,19.30
2023-01-20T15:49:41.361Z,19.17
2023-01-20T15:54:43.135Z,18.50
2023-01-20T15:59:45.966Z,18.85
2023-01-20T16:04:47.711Z,19.55
2023-01-20T16:09:49.289Z,19.65
2023-01-20T16:14:50.606Z,20.48
2023-01-20T16:19:51.967Z,17.17
2023-01-20T16:24:53.428Z,18.00
2023-01-20T16:29:55.913Z,17.67
2023-01-20T16:34:57.302Z,17.17
2023-01-20T16:39:59.303Z,17.50
2023-01-20T16:45:01.150Z,17.67
2023-01-20T16:50:02.566Z,17.67
2023-01-20T16:55:04.158Z,17.27
2023-01-20T17:00:07.139Z,19.58
2023-01-20T17:05:09.411Z,20.52
2023-01-20T17:10:11.826Z,19.05
2023-01-20T17:15:13.264Z,19.80
2023-01-20T17:20:15.062Z,19.40
2023-01-20T17:25:17.872Z,19.73
2023-01-20T17:30:19.618Z,19.48
2023-01-20T17:35:21.067Z,20.35
2023-01-20T17:40:22.510Z,18.58
2023-01-20T17:45:28.227Z,18.38
2023-01-20T17:50:29.587Z,17.63
2023-01-20T17:55:30.926Z,17.88
2023-01-20T18:00:32.304Z,18.58
2023-01-20T18:05:35.770Z,19.48
2023-01-20T18:10:37.138Z,16.90
2023-01-20T18:15:41.776Z,20.63
2023-01-20T18:20:44.487Z,19.52
2023-01-20T18:25:45.804Z,17.83
2023-01-20T18:30:47.235Z,15.88
2023-01-20T18:35:48.710Z,14.93
2023-01-20T18:40:50.017Z,15.30
2023-01-20T18:45:54.889Z,13.90
2023-01-20T18:51:00.802Z,14.63
2023-01-20T18:56:04.890Z,15.27
2023-01-20T19:01:12.537Z,14.75
2023-01-20T19:06:23.811Z,15.68
2023-01-20T19:11:28.961Z,14.40
2023-01-20T19:16:33.398Z,14.90
2023-01-20T19:21:36.755Z,15.15
2023-01-20T19:26:39.580Z,15.27
2023-01-20T19:31:42.438Z,15.73
2023-01-20T19:36:43.958Z,16.35
2023-01-20T19:41:45.419Z,16.95
2023-01-20T19:46:47.238Z,15.30
2023-01-20T19:51:48.544Z,14.32
2023-01-20T19:56:50.104Z,24.52
2023-01-20T20:01:51.443Z,13.18
2023-01-20T20:06:52.853Z,13.68
2023-01-20T20:11:54.969Z,13.52
2023-01-20T20:16:56.625Z,12.75
2023-01-20T20:21:58.660Z,11.45
2023-01-20T20:27:00.211Z,12.32
2023-01-20T20:32:01.619Z,11.23
2023-01-20T20:37:03.480Z,11.75
2023-01-20T20:42:04.897Z,12.02
2023-01-20T20:47:06.344Z,12.90
2023-01-20T20:52:08.612Z,12.75
2023-01-20T20:57:09.957Z,16.92
2023-01-20T21:02:13.893Z,14.23
2023-01-20T21:07:15.250Z,14.52
2023-01-20T21:12:16.890Z,16.05
2023-01-20T21:17:18.230Z,16.27
2023-01-20T21:22:19.930Z,16.10
2023-01-20T21:27:21.892Z,16.45
2023-01-20T21:32:23.350Z,16.27
2023-01-20T21:37:24.883Z,15.63
2023-01-20T21:42:26.276Z,15.20
2023-01-20T21:47:27.646Z,14.65
2023-01-20T21:52:41.265Z,15.65
2023-01-20T21:57:43.020Z,15.77
2023-01-20T22:02:44.730Z,15.77
2023-01-20T22:07:47.945Z,14.23
2023-01-20T22:12:49.354Z,15.02
2023-01-20T22:17:50.670Z,13.38
2023-01-20T22:22:52.075Z,13.27
2023-01-20T22:27:53.419Z,12.40
2023-01-20T22:32:54.794Z,12.50
2023-01-20T22:37:56.221Z,13.15
2023-01-20T22:42:57.554Z,13.18
2023-01-20T22:47:59.229Z,13.25
2023-01-20T22:53:00.561Z,14.18
2023-01-20T22:58:01.861Z,13.32
2023-01-20T23:03:03.239Z,13.55
2023-01-20T23:08:06.192Z,15.00
2023-01-20T23:13:07.727Z,13.40
2023-01-20T23:18:09.833Z,14.68
2023-01-20T23:23:11.193Z,14.38
2023-01-20T23:28:13.389Z,14.10
2023-01-20T23:33:14.871Z,14.88
2023-01-20T23:38:16.177Z,13.80
2023-01-20T23:43:17.499Z,15.20
2023-01-20T23:48:18.907Z,14.07
2023-01-20T23:53:20.745Z,15.05
2023-01-20T23:58:22.956Z,16.10
